createdAt,value
2019-04-01T00:00:38.389Z,6.20
2019-04-01T00:03:08.498Z,4.80
2019-04-01T00:05:36.994Z,4.90
2019-04-01T00:08:05.483Z,5.77
2019-04-01T00:10:34.616Z,3.93
2019-04-01T00:13:03.158Z,4.13
2019-04-01T00:15:31.658Z,5.17
2019-04-01T00:18:00.195Z,4.03
2019-04-01T00:20:28.717Z,6.63
2019-04-01T00:22:57.326Z,5.10
2019-04-01T00:25:25.871Z,5.63
2019-04-01T00:27:54.363Z,3.87
2019-04-01T00:30:22.834Z,5.63
2019-04-01T00:32:51.289Z,4.30
2019-04-01T00:35:19.766Z,5.53
2019-04-01T00:37:48.259Z,6.67
2019-04-01T00:43:10.495Z,5.77
2019-04-01T00:45:43.399Z,6.23
2019-04-01T00:48:11.856Z,5.43
2019-04-01T00:50:40.323Z,5.47
2019-04-01T00:53:08.774Z,5.03
2019-04-01T00:55:37.243Z,4.80
2019-04-01T00:58:05.734Z,6.30
2019-04-01T01:00:34.306Z,4.33
2019-04-01T01:03:02.758Z,6.30
2019-04-01T01:05:31.243Z,5.23
2019-04-01T01:07:59.742Z,6.87
2019-04-01T01:10:28.216Z,7.33
2019-04-01T01:12:57.079Z,11.00
2019-04-01T01:15:25.558Z,7.53
2019-04-01T01:17:54.057Z,5.73
2019-04-01T01:20:22.886Z,6.53
2019-04-01T01:22:51.357Z,7.33
2019-04-01T01:25:20.176Z,5.03
2019-04-01T01:27:48.634Z,4.53
2019-04-01T01:30:17.377Z,5.43
2019-04-01T01:32:45.860Z,6.60
2019-04-01T01:35:14.400Z,6.57
2019-04-01T01:37:42.878Z,6.67
2019-04-01T01:40:11.510Z,7.47
2019-04-01T01:42:39.979Z,7.90
2019-04-01T01:45:08.604Z,7.00
2019-04-01T01:47:37.096Z,7.27
2019-04-01T01:50:07.029Z,6.50
2019-04-01T01:52:35.515Z,5.57
2019-04-01T01:55:04.753Z,6.07
2019-04-01T01:57:33.204Z,7.80
2019-04-01T02:00:01.699Z,5.73
2019-04-01T02:02:30.167Z,10.00
2019-04-01T02:04:58.634Z,6.70
2019-04-01T02:07:27.207Z,5.80
2019-04-01T02:09:55.675Z,6.63
2019-04-01T02:12:24.142Z,6.43
2019-04-01T02:14:53.013Z,4.50
2019-04-01T02:17:21.465Z,4.60
2019-04-01T02:19:49.957Z,5.23
2019-04-01T02:22:18.469Z,6.90
2019-04-01T02:24:46.920Z,7.67
2019-04-01T02:27:15.369Z,4.53
2019-04-01T02:29:43.865Z,3.70
2019-04-01T02:32:12.354Z,5.40
2019-04-01T02:34:40.841Z,6.63
2019-04-01T02:37:09.331Z,5.80
2019-04-01T02:39:37.816Z,6.37
2019-04-01T02:42:06.531Z,7.00
2019-04-01T02:44:34.986Z,5.23
2019-04-01T02:47:03.497Z,7.13
2019-04-01T02:49:31.991Z,5.60
2019-04-01T02:52:00.950Z,4.87
2019-04-01T02:54:29.431Z,5.63
2019-04-01T02:56:57.900Z,6.93
2019-04-01T02:59:26.377Z,5.23
2019-04-01T03:01:54.885Z,5.73
2019-04-01T03:04:23.365Z,5.23
2019-04-01T03:06:51.844Z,5.77
2019-04-01T03:09:20.414Z,3.90
2019-04-01T03:11:48.872Z,4.67
2019-04-01T03:14:17.372Z,6.23
2019-04-01T03:16:45.876Z,6.07
2019-04-01T03:19:14.337Z,5.57
2019-04-01T03:21:42.803Z,6.63
2019-04-01T03:24:11.290Z,7.50
2019-04-01T03:26:39.757Z,7.80
2019-04-01T03:29:08.393Z,5.40
2019-04-01T03:31:36.869Z,4.83
2019-04-01T03:34:05.434Z,5.67
2019-04-01T03:36:33.952Z,5.23
2019-04-01T03:39:02.454Z,5.57
2019-04-01T03:41:30.923Z,5.47
2019-04-01T03:43:59.440Z,9.77
2019-04-01T03:46:27.895Z,6.47
2019-04-01T03:48:56.357Z,7.83
2019-04-01T03:51:24.914Z,8.53
2019-04-01T03:53:53.372Z,4.97
2019-04-01T03:56:21.855Z,5.10
2019-04-01T03:58:50.334Z,6.70
2019-04-01T04:01:18.877Z,6.37
2019-04-01T04:03:47.366Z,5.57
2019-04-01T04:06:16.001Z,6.80
2019-04-01T04:08:44.485Z,4.70
2019-04-01T04:11:13.323Z,5.77
2019-04-01T04:13:41.751Z,6.57
2019-04-01T04:16:10.218Z,5.07
2019-04-01T04:18:38.787Z,7.33
2019-04-01T04:21:07.276Z,8.27
2019-04-01T04:23:35.716Z,6.90
2019-04-01T04:26:04.198Z,12.37
2019-04-01T04:28:32.690Z,5.33
2019-04-01T04:31:01.239Z,7.77
2019-04-01T04:33:29.739Z,8.00
2019-04-01T04:35:58.213Z,7.87
2019-04-01T04:38:26.705Z,5.80
2019-04-01T04:40:55.194Z,8.23
2019-04-01T04:43:23.713Z,9.40
2019-04-01T04:45:52.251Z,9.13
2019-04-01T04:48:20.757Z,7.67
2019-04-01T04:50:49.238Z,7.10
2019-04-01T04:53:17.710Z,7.43
2019-04-01T04:55:46.213Z,10.90
2019-04-01T04:58:14.665Z,12.47
2019-04-01T05:00:43.231Z,11.73
2019-04-01T05:03:11.707Z,11.17
2019-04-01T05:05:40.162Z,6.73
2019-04-01T05:08:08.645Z,8.53
2019-04-01T05:10:37.132Z,7.87
2019-04-01T05:13:05.653Z,9.40
2019-04-01T05:15:34.261Z,8.13
2019-04-01T05:18:02.717Z,5.90
2019-04-01T05:20:32.949Z,7.47
2019-04-01T05:23:03.072Z,8.20
2019-04-01T05:25:32.438Z,11.40
2019-04-01T05:28:03.831Z,10.63
2019-04-01T05:30:33.890Z,10.33
2019-04-01T05:33:04.182Z,9.77
2019-04-01T05:35:35.981Z,8.10
2019-04-01T05:38:06.840Z,9.37
2019-04-01T05:40:36.254Z,9.73
2019-04-01T05:43:05.419Z,11.93
2019-04-01T05:45:34.023Z,10.30
2019-04-01T05:48:02.471Z,9.67
2019-04-01T05:50:31.889Z,8.77
2019-04-01T05:53:00.342Z,8.73
2019-04-01T05:55:28.881Z,9.27
2019-04-01T05:57:57.514Z,10.23
2019-04-01T06:00:30.540Z,7.13
2019-04-01T06:02:59.173Z,9.80
2019-04-01T06:05:27.828Z,12.10
2019-04-01T06:07:56.582Z,9.37
2019-04-01T06:10:25.075Z,12.53
2019-04-01T06:12:54.156Z,10.50
2019-04-01T06:15:22.736Z,15.87
2019-04-01T06:17:51.312Z,11.93
2019-04-01T06:20:19.826Z,11.67
2019-04-01T06:22:48.477Z,18.60
2019-04-01T06:25:17.071Z,14.73
2019-04-01T06:27:45.561Z,18.43
2019-04-01T06:30:14.203Z,8.90
2019-04-01T06:32:42.773Z,10.30
2019-04-01T06:35:11.411Z,13.60
2019-04-01T06:37:39.925Z,13.60
2019-04-01T06:40:08.746Z,12.10
2019-04-01T06:42:37.240Z,14.17
2019-04-01T06:45:08.966Z,17.73
2019-04-01T06:47:37.464Z,13.17
2019-04-01T06:50:06.989Z,13.47
2019-04-01T06:52:35.735Z,8.90
2019-04-01T06:55:05.753Z,7.43
2019-04-01T06:57:34.452Z,8.93
2019-04-01T07:00:03.080Z,12.43
2019-04-01T07:02:31.640Z,13.07
2019-04-01T07:05:00.403Z,10.23
2019-04-01T07:07:28.965Z,13.07
2019-04-01T07:09:57.578Z,9.60
2019-04-01T07:12:26.088Z,11.27
2019-04-01T07:14:54.643Z,11.10
2019-04-01T07:17:23.196Z,13.00
2019-04-01T07:19:51.765Z,11.50
2019-04-01T07:22:21.182Z,9.43
2019-04-01T07:24:49.727Z,7.43
2019-04-01T07:27:18.238Z,7.57
2019-04-01T07:29:46.798Z,7.20
2019-04-01T07:32:15.372Z,12.27
2019-04-01T07:34:43.937Z,9.43
2019-04-01T07:37:12.554Z,6.73
2019-04-01T07:39:41.045Z,12.20
2019-04-01T07:42:09.642Z,11.00
2019-04-01T07:44:38.142Z,12.57
2019-04-01T07:47:06.761Z,15.43
2019-04-01T07:49:35.505Z,14.37
2019-04-01T07:52:04.719Z,10.27
2019-04-01T07:54:34.137Z,13.63
2019-04-01T07:57:02.716Z,21.70
2019-04-01T07:59:31.252Z,12.93
2019-04-01T08:01:59.822Z,13.30
2019-04-01T08:04:28.328Z,20.13
2019-04-01T08:06:57.645Z,14.17
2019-04-01T08:09:26.177Z,25.90
2019-04-01T08:11:54.828Z,19.00
2019-04-01T08:14:23.442Z,9.83
2019-04-01T08:16:52.002Z,11.10
2019-04-01T08:19:20.634Z,5.40
2019-04-01T08:21:52.218Z,5.90
2019-04-01T08:24:19.542Z,7.03
2019-04-01T08:26:48.096Z,6.73
2019-04-01T08:29:29.419Z,6.90
2019-04-01T08:31:47.086Z,7.33
2019-04-01T08:34:16.622Z,10.00
2019-04-01T08:36:45.579Z,7.57
2019-04-01T08:39:15.817Z,14.37
2019-04-01T08:41:44.419Z,12.17
2019-04-01T08:44:13.054Z,15.00
2019-04-01T08:46:41.560Z,11.13
2019-04-01T08:49:10.110Z,14.40
2019-04-01T08:51:38.597Z,9.13
2019-04-01T08:54:07.175Z,9.47
2019-04-01T08:56:38.041Z,10.13
2019-04-01T08:59:05.995Z,9.13
2019-04-01T09:01:39.917Z,10.90
2019-04-01T09:04:08.406Z,10.30
2019-04-01T09:06:36.965Z,10.40
2019-04-01T09:09:07.221Z,26.77
2019-04-01T09:11:38.434Z,11.40
2019-04-01T09:14:06.783Z,8.97
2019-04-01T09:16:36.133Z,11.47
2019-04-01T09:19:04.763Z,10.10
2019-04-01T09:21:33.263Z,14.03
2019-04-01T09:24:01.761Z,13.90
2019-04-01T09:26:30.253Z,11.20
2019-04-01T09:28:58.760Z,14.17
2019-04-01T09:31:27.322Z,15.70
2019-04-01T09:33:55.807Z,10.63
2019-04-01T09:36:24.422Z,13.30
2019-04-01T09:38:52.870Z,11.87
2019-04-01T09:41:21.361Z,13.03
2019-04-01T09:43:49.858Z,11.40
2019-04-01T09:46:18.418Z,10.10
2019-04-01T09:48:46.932Z,11.20
2019-04-01T09:51:15.403Z,11.17
2019-04-01T09:53:43.892Z,10.33
2019-04-01T09:56:12.405Z,14.83
2019-04-01T09:58:40.909Z,11.53
2019-04-01T10:01:09.400Z,13.33
2019-04-01T10:03:37.900Z,13.40
2019-04-01T10:06:06.400Z,13.37
2019-04-01T10:08:42.198Z,12.67
2019-04-01T10:11:05.488Z,16.73
2019-04-01T10:13:33.971Z,13.07
2019-04-01T10:16:02.550Z,13.63
2019-04-01T10:18:31.031Z,14.93
2019-04-01T10:21:00.206Z,13.97
2019-04-01T10:23:28.730Z,13.77
2019-04-01T10:25:57.219Z,12.60
2019-04-01T10:28:25.683Z,16.73
2019-04-01T10:30:54.198Z,15.73
2019-04-01T10:33:22.697Z,14.23
2019-04-01T10:35:51.190Z,14.67
2019-04-01T10:38:19.674Z,12.70
2019-04-01T10:40:48.149Z,14.13
2019-04-01T10:43:16.654Z,14.37
2019-04-01T10:45:45.258Z,14.30
2019-04-01T10:48:13.789Z,12.77
2019-04-01T10:50:42.622Z,17.03
2019-04-01T10:53:11.104Z,14.80
2019-04-01T10:55:39.570Z,16.33
2019-04-01T10:58:08.118Z,13.97
2019-04-01T11:00:36.630Z,14.57
2019-04-01T11:03:06.213Z,14.27
2019-04-01T11:05:35.130Z,13.87
2019-04-01T11:08:03.655Z,15.33
2019-04-01T11:10:32.176Z,14.13
2019-04-01T11:13:00.680Z,16.87
2019-04-01T11:15:29.309Z,15.90
2019-04-01T11:17:57.811Z,14.67
2019-04-01T11:20:26.300Z,16.07
2019-04-01T11:22:54.770Z,14.40
2019-04-01T11:25:23.260Z,15.07
2019-04-01T11:27:51.778Z,17.23
2019-04-01T11:30:20.400Z,14.70
2019-04-01T11:32:48.928Z,17.70
2019-04-01T11:35:17.508Z,14.53
2019-04-01T11:37:46.093Z,17.13
2019-04-01T11:40:15.518Z,16.57
2019-04-01T11:42:44.246Z,17.53
2019-04-01T11:45:13.074Z,15.23
2019-04-01T11:47:41.736Z,15.33
2019-04-01T11:50:10.539Z,16.83
2019-04-01T11:52:39.133Z,17.03
2019-04-01T11:55:09.247Z,16.03
2019-04-01T11:57:38.362Z,21.17
2019-04-01T12:00:12.882Z,21.07
2019-04-01T12:02:41.803Z,20.23
2019-04-01T12:05:10.664Z,19.23
2019-04-01T12:07:39.181Z,18.67
2019-04-01T12:10:08.027Z,14.23
2019-04-01T12:12:36.491Z,16.07
2019-04-01T12:15:06.335Z,15.50
2019-04-01T12:17:34.984Z,17.30
2019-04-01T12:20:04.027Z,18.73
2019-04-01T12:22:32.583Z,16.33
2019-04-01T12:25:01.121Z,15.97
2019-04-01T12:27:29.626Z,18.00
2019-04-01T12:29:58.117Z,22.53
2019-04-01T12:32:26.729Z,19.03
2019-04-01T12:34:55.363Z,17.57
2019-04-01T12:37:23.867Z,16.07
2019-04-01T12:39:52.387Z,17.47
2019-04-01T12:42:20.888Z,20.77
2019-04-01T12:44:49.451Z,23.67
2019-04-01T12:47:18.102Z,17.23
2019-04-01T12:49:46.583Z,16.97
2019-04-01T12:52:15.279Z,19.60
2019-04-01T12:54:43.895Z,18.13
2019-04-01T12:57:13.220Z,19.97
2019-04-01T12:59:42.346Z,20.17
2019-04-01T13:02:11.989Z,18.13
2019-04-01T13:04:40.486Z,19.50
2019-04-01T13:07:09.005Z,17.50
2019-04-01T13:09:37.492Z,19.37
2019-04-01T13:12:06.176Z,17.07
2019-04-01T13:14:34.678Z,22.13
2019-04-01T13:17:03.291Z,17.17
2019-04-01T13:19:32.036Z,19.20
2019-04-01T13:22:00.546Z,19.87
2019-04-01T13:24:29.055Z,20.90
2019-04-01T13:26:57.574Z,19.67
2019-04-01T13:29:26.136Z,19.57
2019-04-01T13:31:54.608Z,18.33
2019-04-01T13:34:23.125Z,20.53
2019-04-01T13:36:51.622Z,18.20
2019-04-01T13:39:20.092Z,20.13
2019-04-01T13:41:48.624Z,22.97
2019-04-01T13:44:17.101Z,19.47
2019-04-01T13:46:48.500Z,18.67
2019-04-01T13:49:15.806Z,18.40
2019-04-01T13:51:44.399Z,21.53
2019-04-01T13:54:12.967Z,19.83
2019-04-01T13:56:42.949Z,22.13
2019-04-01T13:59:12.606Z,23.00
2019-04-01T14:01:41.462Z,20.03
2019-04-01T14:04:09.943Z,21.33
2019-04-01T14:06:38.456Z,19.63
2019-04-01T14:09:07.645Z,21.97
2019-04-01T14:11:36.213Z,22.07
2019-04-01T14:14:04.943Z,19.63
2019-04-01T14:16:33.433Z,20.40
2019-04-01T14:19:01.895Z,19.97
2019-04-01T14:21:30.382Z,22.10
2019-04-01T14:23:58.855Z,21.53
2019-04-01T14:26:27.332Z,21.33
2019-04-01T14:28:55.818Z,19.33
2019-04-01T14:31:24.285Z,20.97
2019-04-01T14:33:52.770Z,20.97
2019-04-01T14:36:21.258Z,22.87
2019-04-01T14:38:49.758Z,20.07
2019-04-01T14:41:18.225Z,23.23
2019-04-01T14:43:46.700Z,26.20
2019-04-01T14:46:15.561Z,23.27
2019-04-01T14:48:44.057Z,22.90
2019-04-01T14:51:12.535Z,19.73
2019-04-01T14:53:41.005Z,19.53
2019-04-01T14:56:09.487Z,26.07
2019-04-01T14:58:37.958Z,22.53
2019-04-01T15:01:06.762Z,21.60
2019-04-01T15:03:35.398Z,22.67
2019-04-01T15:06:03.946Z,20.13
2019-04-01T15:08:32.505Z,22.83
2019-04-01T15:11:00.989Z,23.30
2019-04-01T15:13:29.474Z,25.10
2019-04-01T15:15:57.982Z,25.73
2019-04-01T15:18:26.437Z,22.50
2019-04-01T15:20:55.299Z,21.33
2019-04-01T15:23:25.114Z,23.03
2019-04-01T15:25:54.525Z,23.40
2019-04-01T15:28:23.306Z,24.53
2019-04-01T15:30:51.796Z,20.17
2019-04-01T15:33:21.089Z,25.80
2019-04-01T15:35:49.886Z,23.47
2019-04-01T15:38:18.552Z,22.83
2019-04-01T15:40:47.219Z,24.00
2019-04-01T15:43:15.996Z,21.00
2019-04-01T15:45:44.725Z,20.73
2019-04-01T15:48:13.226Z,24.77
2019-04-01T15:50:41.847Z,23.57
2019-04-01T15:53:10.306Z,19.80
2019-04-01T15:55:38.811Z,24.73
2019-04-01T15:58:07.376Z,22.30
2019-04-01T16:00:36.109Z,22.90
2019-04-01T16:03:04.753Z,24.57
2019-04-01T16:05:34.133Z,28.33
2019-04-01T16:08:02.977Z,25.07
2019-04-01T16:10:31.856Z,25.90
2019-04-01T16:13:00.292Z,21.47
2019-04-01T16:15:31.902Z,26.27
2019-04-01T16:17:58.948Z,22.17
2019-04-01T16:20:27.404Z,28.70
2019-04-01T16:22:55.924Z,27.73
2019-04-01T16:25:24.410Z,23.83
2019-04-01T16:27:52.888Z,27.47
2019-04-01T16:30:21.380Z,26.77
2019-04-01T16:32:49.870Z,30.23
2019-04-01T16:35:18.337Z,29.37
2019-04-01T16:37:46.831Z,25.70
2019-04-01T16:40:16.165Z,26.10
2019-04-01T16:42:44.597Z,23.70
2019-04-01T16:45:13.923Z,27.10
2019-04-01T16:47:42.557Z,24.23
2019-04-01T16:50:11.799Z,22.27
2019-04-01T16:52:40.677Z,20.27
2019-04-01T16:55:10.800Z,21.23
2019-04-01T16:57:39.299Z,18.77
2019-04-01T17:00:14.138Z,18.97
2019-04-01T17:02:40.842Z,17.17
2019-04-01T17:05:09.866Z,19.63
2019-04-01T17:07:38.376Z,17.73
2019-04-01T17:10:07.086Z,18.37
2019-04-01T17:12:35.586Z,19.17
2019-04-01T17:15:04.897Z,17.07
2019-04-01T17:17:33.416Z,17.90
2019-04-01T17:20:01.927Z,16.90
2019-04-01T17:22:31.272Z,22.07
2019-04-01T17:25:00.572Z,19.33
2019-04-01T17:27:29.074Z,17.43
2019-04-01T17:29:57.569Z,17.43
2019-04-01T17:32:26.471Z,16.90
2019-04-01T17:34:54.963Z,17.13
2019-04-01T17:37:23.461Z,17.63
2019-04-01T17:39:51.950Z,18.20
2019-04-01T17:42:20.507Z,19.73
2019-04-01T17:44:52.050Z,20.40
2019-04-01T17:47:20.554Z,20.80
2019-04-01T17:49:49.135Z,19.27
2019-04-01T17:52:17.637Z,19.93
2019-04-01T17:54:46.137Z,19.77
2019-04-01T17:57:15.972Z,17.37
2019-04-01T17:59:44.860Z,22.47
2019-04-01T18:02:15.107Z,20.80
2019-04-01T18:04:43.609Z,21.10
2019-04-01T18:07:12.090Z,19.70
2019-04-01T18:09:40.592Z,22.70
2019-04-01T18:12:09.074Z,21.10
2019-04-01T18:14:37.971Z,20.30
2019-04-01T18:17:06.535Z,24.73
2019-04-01T18:19:36.142Z,21.13
2019-04-01T18:22:04.990Z,21.30
2019-04-01T18:24:33.468Z,16.83
2019-04-01T18:27:02.003Z,17.23
2019-04-01T18:29:30.498Z,19.97
2019-04-01T18:31:59.221Z,21.03
2019-04-01T18:34:28.064Z,16.77
2019-04-01T18:36:56.959Z,18.57
2019-04-01T18:39:25.451Z,17.50
2019-04-01T18:41:53.914Z,16.53
2019-04-01T18:44:22.414Z,19.23
2019-04-01T18:46:50.905Z,20.13
2019-04-01T18:49:19.742Z,23.07
2019-04-01T18:51:48.255Z,20.73
2019-04-01T18:54:16.732Z,23.20
2019-04-01T18:56:47.643Z,18.83
2019-04-01T18:59:15.411Z,18.63
2019-04-01T19:01:44.190Z,18.33
2019-04-01T19:04:13.102Z,18.37
2019-04-01T19:06:41.640Z,14.17
2019-04-01T19:09:11.757Z,15.77
2019-04-01T19:11:43.305Z,18.93
2019-04-01T19:14:11.194Z,17.43
2019-04-01T19:16:40.207Z,21.43
2019-04-01T19:19:08.679Z,15.90
2019-04-01T19:21:37.473Z,17.60
2019-04-01T19:24:06.923Z,18.93
2019-04-01T19:26:35.566Z,14.67
2019-04-01T19:29:04.053Z,15.13
2019-04-01T19:31:32.538Z,14.90
2019-04-01T19:34:00.982Z,17.70
2019-04-01T19:36:30.155Z,15.63
2019-04-01T19:38:58.894Z,13.60
2019-04-01T19:41:27.453Z,12.83
2019-04-01T19:43:55.924Z,12.93
2019-04-01T19:46:24.403Z,15.33
2019-04-01T19:48:52.878Z,14.27
2019-04-01T19:51:21.414Z,14.10
2019-04-01T19:53:49.900Z,10.93
2019-04-01T19:56:18.383Z,13.37
2019-04-01T19:58:46.834Z,17.70
2019-04-01T20:01:15.367Z,11.87
2019-04-01T20:03:43.911Z,8.97
2019-04-01T20:06:12.393Z,18.83
2019-04-01T20:08:40.859Z,14.63
2019-04-01T20:11:09.360Z,11.00
2019-04-01T20:13:39.297Z,11.83
2019-04-01T20:16:10.198Z,10.13
2019-04-01T20:18:38.428Z,14.70
2019-04-01T20:21:07.046Z,10.70
2019-04-01T20:23:35.576Z,9.50
2019-04-01T20:26:04.479Z,11.73
2019-04-01T20:28:32.974Z,8.67
2019-04-01T20:31:01.469Z,17.37
2019-04-01T20:33:31.791Z,11.87
2019-04-01T20:36:00.151Z,18.20
2019-04-01T20:38:28.625Z,14.17
2019-04-01T20:40:57.118Z,11.13
2019-04-01T20:43:25.585Z,14.73
2019-04-01T20:45:54.070Z,13.67
2019-04-01T20:48:22.550Z,10.43
2019-04-01T20:50:51.027Z,10.83
2019-04-01T20:53:19.524Z,14.23
2019-04-01T20:55:49.640Z,11.47
2019-04-01T20:58:18.235Z,15.80
2019-04-01T21:00:46.762Z,16.83
2019-04-01T21:03:15.278Z,11.77
2019-04-01T21:05:43.827Z,18.67
2019-04-01T21:08:12.336Z,11.17
2019-04-01T21:10:42.113Z,20.13
2019-04-01T21:13:11.036Z,14.90
2019-04-01T21:15:39.513Z,12.07
2019-04-01T21:18:07.981Z,15.40
2019-04-01T21:20:36.476Z,13.63
2019-04-01T21:23:04.943Z,9.70
2019-04-01T21:25:33.410Z,9.37
2019-04-01T21:28:01.861Z,9.50
2019-04-01T21:30:30.427Z,11.37
2019-04-01T21:32:58.896Z,14.87
2019-04-01T21:35:27.394Z,15.10
2019-04-01T21:37:55.893Z,13.93
2019-04-01T21:40:24.398Z,12.73
2019-04-01T21:42:52.876Z,10.33
2019-04-01T21:45:21.346Z,12.10
2019-04-01T21:47:49.835Z,11.00
2019-04-01T21:50:18.696Z,10.17
2019-04-01T21:52:47.189Z,8.87
2019-04-01T21:55:15.755Z,16.07
2019-04-01T21:57:44.243Z,12.67
2019-04-01T22:00:18.035Z,11.50
2019-04-01T22:02:46.833Z,17.67
2019-04-01T22:05:15.438Z,12.27
2019-04-01T22:07:43.926Z,12.73
2019-04-01T22:10:12.700Z,15.57
2019-04-01T22:12:41.201Z,9.47
2019-04-01T22:15:09.764Z,14.63
2019-04-01T22:17:38.260Z,8.57
2019-04-01T22:20:07.400Z,8.20
2019-04-01T22:22:37.065Z,9.73
2019-04-01T22:25:06.064Z,8.60
2019-04-01T22:27:34.586Z,10.17
2019-04-01T22:30:03.168Z,8.63
2019-04-01T22:32:31.649Z,11.87
2019-04-01T22:35:00.159Z,8.30
2019-04-01T22:37:28.663Z,8.20
2019-04-01T22:39:57.158Z,11.83
2019-04-01T22:42:27.043Z,10.10
2019-04-01T22:44:55.621Z,9.37
2019-04-01T22:47:24.558Z,9.87
2019-04-01T22:49:53.256Z,12.23
2019-04-01T22:52:21.781Z,9.67
2019-04-01T22:54:50.259Z,11.30
2019-04-01T22:57:18.723Z,12.67
2019-04-01T22:59:48.245Z,9.40
2019-04-01T23:02:17.637Z,9.20
2019-04-01T23:04:46.104Z,9.20
2019-04-01T23:07:14.584Z,10.13
2019-04-01T23:09:43.087Z,10.67
2019-04-01T23:12:11.551Z,8.73
2019-04-01T23:14:40.018Z,9.90
2019-04-01T23:17:09.212Z,9.80
2019-04-01T23:19:38.932Z,9.70
2019-04-01T23:22:07.457Z,8.30
2019-04-01T23:24:35.949Z,10.53
2019-04-01T23:27:05.088Z,11.73
2019-04-01T23:29:33.564Z,10.07
2019-04-01T23:32:02.046Z,9.87
2019-04-01T23:34:30.534Z,9.93
2019-04-01T23:36:59.017Z,9.37
2019-04-01T23:39:27.523Z,8.77
2019-04-01T23:41:55.988Z,8.97
2019-04-01T23:44:24.445Z,11.83
2019-04-01T23:46:52.957Z,11.27
2019-04-01T23:49:21.445Z,9.60
2019-04-01T23:51:49.939Z,10.03
2019-04-01T23:54:18.401Z,12.00
2019-04-01T23:56:46.856Z,12.37
2019-04-01T23:59:15.343Z,10.20
